createdAt,value
2023-04-22T00:02:08.056Z,99850.08
2023-04-22T00:04:37.575Z,99850.59
2023-04-22T00:07:06.493Z,99853.64
2023-04-22T00:09:35.287Z,99855.95
2023-04-22T00:12:03.931Z,99857.32
2023-04-22T00:14:32.985Z,99861.89
2023-04-22T00:17:02.571Z,99865.36
2023-04-22T00:19:32.337Z,99865.07
2023-04-22T00:22:00.873Z,99866.44
2023-04-22T00:24:29.885Z,99865.13
2023-04-22T00:26:58.337Z,99867.84
2023-04-22T00:29:27.292Z,99867.68
2023-04-22T00:31:55.852Z,99866.38
2023-04-22T00:34:24.337Z,99866.33
2023-04-22T00:36:52.738Z,99868.85
2023-04-22T00:39:21.172Z,99868.84
2023-04-22T00:41:49.933Z,99870.15
2023-04-22T00:44:18.563Z,99869.87
2023-04-22T00:46:47.225Z,99873.42
2023-04-22T00:49:16.302Z,99870.65
2023-04-22T00:51:44.752Z,99875.32
2023-04-22T00:54:14.457Z,99873.10
2023-04-22T00:56:43.245Z,99875.62
2023-04-22T00:59:11.640Z,99875.50
2023-04-22T01:01:40.103Z,99878.20
2023-04-22T01:04:09.040Z,99880.90
2023-04-22T01:06:37.788Z,99876.86
2023-04-22T01:09:06.366Z,99877.36
2023-04-22T01:11:36.528Z,99876.46
2023-04-22T01:14:05.429Z,99878.52
2023-04-22T01:16:36.113Z,99880.21
2023-04-22T01:19:05.249Z,99880.91
2023-04-22T01:21:35.320Z,99878.45
2023-04-22T01:24:03.903Z,99882.12
2023-04-22T01:26:32.673Z,99880.95
2023-04-22T01:29:02.070Z,99879.05
2023-04-22T01:31:30.884Z,99872.00
2023-04-22T01:33:59.823Z,99879.20
2023-04-22T01:36:29.011Z,99879.05
2023-04-22T01:38:57.449Z,99880.58
2023-04-22T01:41:28.597Z,99878.52
2023-04-22T01:43:58.367Z,99877.16
2023-04-22T01:46:27.183Z,99879.11
2023-04-22T01:48:55.665Z,99880.24
2023-04-22T01:51:24.249Z,99877.91
2023-04-22T01:53:52.702Z,99876.88
2023-04-22T01:56:21.638Z,99878.88
2023-04-22T01:58:50.709Z,99877.46
2023-04-22T02:01:19.172Z,99879.48
2023-04-22T02:03:47.866Z,99879.70
2023-04-22T02:06:16.524Z,99878.69
2023-04-22T02:08:45.064Z,99877.13
2023-04-22T02:11:15.759Z,99882.04
2023-04-22T02:13:44.456Z,99880.42
2023-04-22T02:16:12.937Z,99881.29
2023-04-22T02:18:42.138Z,99885.73
2023-04-22T02:21:10.617Z,99880.52
2023-04-22T02:23:40.116Z,99884.29
2023-04-22T02:26:08.612Z,99884.30
2023-04-22T02:28:37.411Z,99885.66
2023-04-22T02:31:06.031Z,99885.31
2023-04-22T02:33:34.603Z,99884.13
2023-04-22T02:36:03.727Z,99882.75
2023-04-22T02:38:32.239Z,99886.52
2023-04-22T02:41:00.655Z,99889.13
2023-04-22T02:43:29.547Z,99890.33
2023-04-22T02:45:57.997Z,99895.51
2023-04-22T02:48:26.668Z,99896.99
2023-04-22T02:50:55.134Z,99896.77
2023-04-22T02:53:23.744Z,99896.10
2023-04-22T02:55:52.645Z,99897.16
2023-04-22T02:58:21.211Z,99895.70
2023-04-22T03:00:49.725Z,99902.24
2023-04-22T03:03:18.330Z,99902.81
2023-04-22T03:05:47.027Z,99903.54
2023-04-22T03:08:16.013Z,99905.46
2023-04-22T03:10:44.987Z,99906.48
2023-04-22T03:13:14.574Z,99908.44
2023-04-22T03:15:43.268Z,99913.62
2023-04-22T03:18:11.756Z,99916.18
2023-04-22T03:20:40.893Z,99922.46
2023-04-22T03:23:10.038Z,99924.92
2023-04-22T03:25:39.077Z,99926.24
2023-04-22T03:28:07.688Z,99931.37
2023-04-22T03:30:36.216Z,99932.40
2023-04-22T03:33:04.831Z,99938.24
2023-04-22T03:35:44.298Z,99940.61
2023-04-22T03:38:13.124Z,99941.19
2023-04-22T03:40:42.655Z,99949.11
2023-04-22T03:43:19.550Z,99951.42
2023-04-22T03:45:57.032Z,99949.88
2023-04-22T03:48:30.330Z,99953.07
2023-04-22T03:50:58.902Z,99957.98
2023-04-22T03:53:27.604Z,99959.72
2023-04-22T03:55:59.015Z,99963.66
2023-04-22T03:58:27.595Z,99965.27
2023-04-22T04:00:56.958Z,99966.05
2023-04-22T04:03:29.387Z,99966.39
2023-04-22T04:05:59.761Z,99970.70
2023-04-22T04:08:28.307Z,99971.80
2023-04-22T04:10:58.170Z,99973.41
2023-04-22T04:13:27.119Z,99975.06
2023-04-22T04:16:19.056Z,99974.96
2023-04-22T04:18:53.194Z,99981.36
2023-04-22T04:21:22.372Z,99978.34
2023-04-22T04:23:54.193Z,99979.68
2023-04-22T04:26:27.874Z,99980.96
2023-04-22T04:29:02.078Z,99986.71
2023-04-22T04:31:30.967Z,99989.99
2023-04-22T04:34:00.674Z,99989.08
2023-04-22T04:36:29.544Z,99991.83
2023-04-22T04:39:04.806Z,99996.55
2023-04-22T04:41:34.108Z,99999.42
2023-04-22T04:44:03.457Z,99997.98
2023-04-22T04:46:37.958Z,99999.53
2023-04-22T04:49:09.641Z,100001.23
2023-04-22T04:51:46.644Z,100003.30
2023-04-22T04:54:16.788Z,100005.54
2023-04-22T04:56:45.441Z,100005.58
2023-04-22T04:59:14.967Z,100008.70
2023-04-22T05:01:46.049Z,100008.10
2023-04-22T05:04:18.261Z,100010.13
2023-04-22T05:06:48.025Z,100012.98
2023-04-22T05:09:18.583Z,100012.23
2023-04-22T05:11:49.987Z,100015.11
2023-04-22T05:14:22.383Z,100014.75
2023-04-22T05:16:52.336Z,100017.83
2023-04-22T05:19:28.247Z,100018.27
2023-04-22T05:21:59.699Z,100019.92
2023-04-22T05:24:28.345Z,100021.81
2023-04-22T05:26:58.702Z,100022.31
2023-04-22T05:29:28.057Z,100023.41
2023-04-22T05:31:56.954Z,100022.50
2023-04-22T05:34:28.075Z,100023.50
2023-04-22T05:36:58.569Z,100030.12
2023-04-22T05:39:28.313Z,100031.34
2023-04-22T05:41:57.582Z,100032.33
2023-04-22T05:44:26.452Z,100028.70
2023-04-22T05:46:54.941Z,100035.30
2023-04-22T05:49:23.521Z,100030.05
2023-04-22T05:52:11.704Z,100031.48
2023-04-22T05:55:13.307Z,100030.62
2023-04-22T05:57:42.496Z,100032.70
2023-04-22T06:00:22.424Z,100034.54
2023-04-22T06:02:56.073Z,100035.67
2023-04-22T06:05:25.853Z,100041.15
2023-04-22T06:07:54.360Z,100041.13
2023-04-22T06:10:22.968Z,100040.92
2023-04-22T06:12:52.028Z,100043.30
2023-04-22T06:15:21.646Z,100045.13
2023-04-22T06:17:52.579Z,100047.98
2023-04-22T06:20:21.164Z,100045.33
2023-04-22T06:22:49.591Z,100047.83
2023-04-22T06:25:18.119Z,100049.85
2023-04-22T06:27:46.599Z,100052.39
2023-04-22T06:30:15.912Z,100050.38
2023-04-22T06:32:45.150Z,100053.37
2023-04-22T06:35:13.589Z,100055.10
2023-04-22T06:37:42.719Z,100060.09
2023-04-22T06:40:11.477Z,100066.59
2023-04-22T06:43:09.163Z,100068.69
2023-04-22T06:46:06.765Z,100070.11
2023-04-22T06:48:41.839Z,100070.67
2023-04-22T06:51:29.507Z,100068.06
2023-04-22T06:53:58.731Z,100064.98
2023-04-22T06:56:27.243Z,100069.67
2023-04-22T06:58:55.901Z,100073.95
2023-04-22T07:01:24.549Z,100073.66
2023-04-22T07:03:53.170Z,100076.97
2023-04-22T07:06:21.924Z,100078.58
2023-04-22T07:08:52.371Z,100084.83
2023-04-22T07:11:21.621Z,100082.32
2023-04-22T07:14:00.027Z,100084.44
2023-04-22T07:16:29.157Z,100086.02
2023-04-22T07:18:59.409Z,100086.41
2023-04-22T07:21:28.323Z,100085.91
2023-04-22T07:23:57.265Z,100085.02
2023-04-22T07:26:26.040Z,100089.50
2023-04-22T07:28:54.724Z,100087.38
2023-04-22T07:31:23.197Z,100088.75
2023-04-22T07:33:51.730Z,100094.91
2023-04-22T07:36:20.201Z,100095.31
2023-04-22T07:38:48.629Z,100097.31
2023-04-22T07:41:17.428Z,100103.14
2023-04-22T07:43:45.970Z,100104.27
2023-04-22T07:46:15.943Z,100109.21
2023-04-22T07:48:44.765Z,100112.36
2023-04-22T07:51:13.378Z,100113.62
2023-04-22T07:53:41.933Z,100118.33
2023-04-22T07:56:10.908Z,100119.75
2023-04-22T07:58:39.641Z,100125.92
2023-04-22T08:01:08.261Z,100133.21
2023-04-22T08:03:36.993Z,100135.70
2023-04-22T08:06:05.988Z,100136.81
2023-04-22T08:08:34.802Z,100137.71
2023-04-22T08:11:03.247Z,100136.55
2023-04-22T08:13:31.868Z,100136.67
2023-04-22T08:16:03.061Z,100135.78
2023-04-22T08:18:31.652Z,100136.84
2023-04-22T08:21:00.138Z,100138.25
2023-04-22T08:23:28.792Z,100138.73
2023-04-22T08:25:58.490Z,100137.36
2023-04-22T08:28:27.338Z,100140.61
2023-04-22T08:30:55.946Z,100144.21
2023-04-22T08:33:27.249Z,100145.14
2023-04-22T08:35:56.029Z,100148.39
2023-04-22T08:38:24.468Z,100146.08
2023-04-22T08:40:56.448Z,100145.91
2023-04-22T08:43:28.410Z,100145.30
2023-04-22T08:45:56.848Z,100143.93
2023-04-22T08:48:26.366Z,100156.77
2023-04-22T08:50:55.309Z,100156.46
2023-04-22T08:53:24.896Z,100153.80
2023-04-22T08:55:54.196Z,100154.43
2023-04-22T08:58:23.384Z,100160.22
2023-04-22T09:00:51.904Z,100165.63
2023-04-22T09:03:20.790Z,100161.73
2023-04-22T09:05:49.361Z,100167.13
2023-04-22T09:08:18.970Z,100167.76
2023-04-22T09:10:47.404Z,100171.12
2023-04-22T09:13:15.845Z,100170.00
2023-04-22T09:15:44.354Z,100172.83
2023-04-22T09:18:12.808Z,100172.73
2023-04-22T09:20:42.358Z,100176.17
2023-04-22T09:23:10.975Z,100176.13
2023-04-22T09:25:40.116Z,100179.60
2023-04-22T09:28:12.325Z,100184.17
2023-04-22T09:30:40.979Z,100184.77
2023-04-22T09:33:09.659Z,100182.46
2023-04-22T09:35:40.822Z,100189.02
2023-04-22T09:38:11.469Z,100189.39
2023-04-22T09:40:43.281Z,100190.59
2023-04-22T09:43:12.316Z,100191.90
2023-04-22T09:45:42.272Z,100196.15
2023-04-22T09:48:11.517Z,100198.66
2023-04-22T09:50:44.547Z,100195.17
2023-04-22T09:53:14.953Z,100194.30
2023-04-22T09:55:48.560Z,100197.88
2023-04-22T09:58:18.875Z,100196.84
2023-04-22T10:00:49.726Z,100194.38
2023-04-22T10:03:19.337Z,100197.91
2023-04-22T10:05:48.241Z,100200.68
2023-04-22T10:08:17.037Z,100199.08
2023-04-22T10:10:45.635Z,100199.65
2023-04-22T10:13:14.138Z,100198.71
2023-04-22T10:15:55.996Z,100200.95
2023-04-22T10:18:28.447Z,100201.55
2023-04-22T10:20:57.387Z,100203.98
2023-04-22T10:23:26.938Z,100204.25
2023-04-22T10:25:56.347Z,100201.65
2023-04-22T10:28:25.963Z,100206.29
2023-04-22T10:30:54.859Z,100209.23
2023-04-22T10:33:24.345Z,100209.36
2023-04-22T10:36:08.738Z,100205.00
2023-04-22T10:38:42.431Z,100211.58
2023-04-22T10:41:14.691Z,100215.66
2023-04-22T10:43:47.411Z,100214.40
2023-04-22T10:46:40.426Z,100213.92
2023-04-22T10:49:18.764Z,100205.94
2023-04-22T10:51:58.739Z,100207.74
2023-04-22T10:54:53.307Z,100198.55
2023-04-22T10:57:24.991Z,100206.09
2023-04-22T10:59:56.383Z,100200.95
2023-04-22T11:02:25.243Z,100204.73
2023-04-22T11:05:21.908Z,100205.23
2023-04-22T11:07:56.458Z,100213.05
2023-04-22T11:10:42.349Z,100213.49
2023-04-22T11:13:19.740Z,100216.41
2023-04-22T11:15:49.854Z,100217.91
2023-04-22T11:18:26.001Z,100220.41
2023-04-22T11:20:54.746Z,100217.52
2023-04-22T11:23:25.976Z,100218.58
2023-04-22T11:26:05.346Z,100216.46
2023-04-22T11:28:35.172Z,100214.17
2023-04-22T11:31:10.598Z,100215.81
2023-04-22T11:33:39.516Z,100218.41
2023-04-22T11:36:12.304Z,100219.04
2023-04-22T11:38:40.865Z,100217.76
2023-04-22T11:41:09.854Z,100221.88
2023-04-22T11:43:48.174Z,100222.89
2023-04-22T11:46:16.752Z,100219.11
2023-04-22T11:48:45.220Z,100211.57
2023-04-22T11:51:14.106Z,100220.69
2023-04-22T11:53:50.630Z,100218.39
2023-04-22T11:56:19.032Z,100217.31
2023-04-22T11:58:47.730Z,100215.79
2023-04-22T12:01:16.922Z,100215.17
2023-04-22T12:03:45.491Z,100216.05
2023-04-22T12:06:14.207Z,100216.11
2023-04-22T12:08:44.761Z,100218.61
2023-04-22T12:11:13.813Z,100213.23
2023-04-22T12:13:46.641Z,100213.91
2023-04-22T12:16:18.000Z,100213.88
2023-04-22T12:18:53.627Z,100212.97
2023-04-22T12:21:23.915Z,100210.49
2023-04-22T12:23:57.792Z,100211.48
2023-04-22T12:26:27.591Z,100210.96
2023-04-22T12:29:00.384Z,100217.17
2023-04-22T12:31:29.612Z,100216.67
2023-04-22T12:33:58.393Z,100215.49
2023-04-22T12:36:29.230Z,100214.09
2023-04-22T12:38:57.772Z,100216.00
2023-04-22T12:41:25.998Z,100215.03
2023-04-22T12:43:55.553Z,100217.50
2023-04-22T12:46:23.984Z,100216.29
2023-04-22T12:48:53.283Z,100214.40
2023-04-22T12:51:22.684Z,100220.44
2023-04-22T12:54:20.219Z,100219.16
2023-04-22T12:56:48.930Z,100228.11
2023-04-22T12:59:19.008Z,100236.45
2023-04-22T13:01:47.569Z,100244.17
2023-04-22T13:04:16.185Z,100245.10
2023-04-22T13:06:46.476Z,100248.92
2023-04-22T13:09:16.892Z,100248.10
2023-04-22T13:11:45.193Z,100246.96
2023-04-22T13:14:15.246Z,100247.48
2023-04-22T13:16:43.570Z,100247.36
2023-04-22T13:19:12.299Z,100253.52
2023-04-22T13:21:41.010Z,100267.52
2023-04-22T13:24:09.970Z,100266.06
2023-04-22T13:26:39.254Z,100278.16
2023-04-22T13:29:11.431Z,100287.64
2023-04-22T13:31:42.834Z,100288.52
2023-04-22T13:34:13.315Z,100293.41
2023-04-22T13:36:42.004Z,100290.52
2023-04-22T13:39:10.809Z,100293.20
2023-04-22T13:41:39.440Z,100292.95
2023-04-22T13:44:07.997Z,100293.27
2023-04-22T13:46:36.656Z,100299.06
2023-04-22T13:49:06.048Z,100298.48
2023-04-22T13:51:34.768Z,100299.71
2023-04-22T13:54:04.367Z,100301.36
2023-04-22T13:56:33.300Z,100298.66
2023-04-22T13:59:01.851Z,100300.13
2023-04-22T14:01:31.536Z,100298.05
2023-04-22T14:04:00.159Z,100298.91
2023-04-22T14:06:28.626Z,100299.05
2023-04-22T14:08:57.339Z,100304.53
2023-04-22T14:11:27.767Z,100302.51
2023-04-22T14:13:56.214Z,100304.42
2023-04-22T14:16:25.116Z,100309.93
2023-04-22T14:18:54.161Z,100312.66
2023-04-22T14:21:24.489Z,100312.73
2023-04-22T14:23:54.253Z,100313.52
2023-04-22T14:26:22.721Z,100310.77
2023-04-22T14:28:51.306Z,100313.84
2023-04-22T14:31:20.147Z,100315.69
2023-04-22T14:33:48.607Z,100314.50
2023-04-22T14:36:17.982Z,100318.69
2023-04-22T14:38:46.601Z,100320.80
2023-04-22T14:41:15.611Z,100320.80
2023-04-22T14:43:44.533Z,100321.02
2023-04-22T14:46:13.010Z,100324.19
2023-04-22T14:49:43.290Z,100320.82
2023-04-22T14:52:58.366Z,100328.65
2023-04-22T14:55:26.860Z,100329.08
2023-04-22T14:57:59.511Z,100328.11
2023-04-22T15:00:28.704Z,100331.02
2023-04-22T15:02:57.473Z,100332.73
2023-04-22T15:05:26.048Z,100333.93
2023-04-22T15:07:55.703Z,100335.17
2023-04-22T15:10:25.319Z,100335.17
2023-04-22T15:12:54.325Z,100340.11
2023-04-22T15:15:22.978Z,100347.27
2023-04-22T15:17:51.544Z,100353.11
2023-04-22T15:20:20.216Z,100350.27
2023-04-22T15:22:50.904Z,100346.20
2023-04-22T15:25:19.681Z,100341.08
2023-04-22T15:27:48.908Z,100337.63
2023-04-22T15:30:18.311Z,100340.98
2023-04-22T15:32:47.118Z,100338.02
2023-04-22T15:35:15.812Z,100341.04
2023-04-22T15:37:46.016Z,100345.10
2023-04-22T15:40:14.819Z,100349.93
2023-04-22T15:42:43.492Z,100349.27
2023-04-22T15:45:12.866Z,100354.71
2023-04-22T15:47:41.856Z,100351.38
2023-04-22T15:50:10.804Z,100352.79
2023-04-22T15:52:39.992Z,100349.62
2023-04-22T15:55:09.691Z,100350.58
2023-04-22T15:57:39.246Z,100348.56
2023-04-22T16:00:12.299Z,100354.01
2023-04-22T16:02:44.543Z,100363.91
2023-04-22T16:05:15.128Z,100369.73
2023-04-22T16:07:44.419Z,100373.02
2023-04-22T16:10:13.516Z,100377.07
2023-04-22T16:12:42.824Z,100377.14
2023-04-22T16:15:11.755Z,100374.98
2023-04-22T16:17:41.241Z,100376.41
2023-04-22T16:20:10.585Z,100375.90
2023-04-22T16:22:40.179Z,100385.13
2023-04-22T16:25:09.847Z,100390.36
2023-04-22T16:27:38.841Z,100389.71
2023-04-22T16:30:08.437Z,100395.00
2023-04-22T16:32:37.557Z,100397.16
2023-04-22T16:35:07.412Z,100399.64
2023-04-22T16:37:37.023Z,100400.98
2023-04-22T16:40:06.477Z,100406.45
2023-04-22T16:42:35.456Z,100410.09
2023-04-22T16:45:04.403Z,100412.36
2023-04-22T16:47:33.188Z,100419.14
2023-04-22T16:50:01.763Z,100424.58
2023-04-22T16:52:31.420Z,100426.27
2023-04-22T16:55:00.809Z,100430.35
2023-04-22T16:57:29.678Z,100437.27
2023-04-22T16:59:59.433Z,100440.50
2023-04-22T17:02:28.360Z,100452.52
2023-04-22T17:04:57.014Z,100460.53
2023-04-22T17:07:26.650Z,100458.94
2023-04-22T17:09:55.913Z,100460.14
2023-04-22T17:12:24.520Z,100461.98
2023-04-22T17:14:53.261Z,100466.32
2023-04-22T17:17:23.177Z,100471.55
2023-04-22T17:19:54.285Z,100472.06
2023-04-22T17:22:24.956Z,100468.13
2023-04-22T17:24:53.887Z,100467.68
2023-04-22T17:27:22.940Z,100467.04
2023-04-22T17:29:51.477Z,100469.41
2023-04-22T17:32:20.168Z,100471.44
2023-04-22T17:34:48.541Z,100483.63
2023-04-22T17:37:18.282Z,100479.45
2023-04-22T17:39:49.233Z,100479.71
2023-04-22T17:42:58.064Z,100483.27
2023-04-22T17:45:26.961Z,100483.65
2023-04-22T17:47:55.521Z,100488.55
2023-04-22T17:50:24.310Z,100489.00
2023-04-22T17:52:53.313Z,100487.41
2023-04-22T17:55:22.276Z,100490.70
2023-04-22T17:57:50.971Z,100489.30
2023-04-22T18:00:19.507Z,100494.06
2023-04-22T18:02:48.566Z,100493.94
2023-04-22T18:05:18.616Z,100494.27
2023-04-22T18:07:47.812Z,100490.82
2023-04-22T18:10:18.959Z,100488.02
2023-04-22T18:12:47.647Z,100487.87
2023-04-22T18:15:16.310Z,100486.25
2023-04-22T18:17:55.052Z,100491.05
2023-04-22T18:20:25.266Z,100487.66
2023-04-22T18:22:53.969Z,100487.30
2023-04-22T18:25:22.841Z,100487.98
2023-04-22T18:27:55.257Z,100485.88
2023-04-22T18:30:24.171Z,100492.33
2023-04-22T18:32:55.655Z,100490.63
2023-04-22T18:35:26.644Z,100492.89
2023-04-22T18:37:59.298Z,100492.30
2023-04-22T18:40:54.204Z,100494.20
2023-04-22T18:43:24.759Z,100495.67
2023-04-22T18:45:55.556Z,100492.65
2023-04-22T18:48:25.312Z,100495.79
2023-04-22T18:50:55.137Z,100491.66
2023-04-22T18:53:25.144Z,100495.10
2023-04-22T18:55:58.916Z,100497.70
2023-04-22T18:58:27.501Z,100500.51
2023-04-22T19:00:56.622Z,100502.16
2023-04-22T19:03:31.009Z,100502.02
2023-04-22T19:10:23.633Z,100508.36
2023-04-22T19:12:55.238Z,100507.36
2023-04-22T19:15:40.095Z,100504.85
2023-04-22T19:18:19.964Z,100507.67
2023-04-22T19:20:48.534Z,100512.99
2023-04-22T19:23:18.488Z,100510.48
2023-04-22T19:26:13.221Z,100508.08
2023-04-22T19:28:47.297Z,100512.05
2023-04-22T19:31:19.449Z,100518.92
2023-04-22T19:34:19.840Z,100516.66
2023-04-22T19:36:55.014Z,100523.14
2023-04-22T19:39:25.224Z,100527.91
2023-04-22T19:41:55.045Z,100528.68
2023-04-22T19:44:23.801Z,100528.76
2023-04-22T19:46:53.130Z,100528.44
2023-04-22T19:49:22.349Z,100530.23
2023-04-22T19:51:55.350Z,100533.52
2023-04-22T19:54:23.962Z,100524.70
2023-04-22T19:57:06.894Z,100526.58
2023-04-22T19:59:40.171Z,100530.63
2023-04-22T20:02:10.545Z,100526.57
2023-04-22T20:04:42.763Z,100529.85
2023-04-22T20:07:14.562Z,100530.94
2023-04-22T20:09:43.926Z,100532.34
2023-04-22T20:12:13.183Z,100531.73
2023-04-22T20:14:42.261Z,100534.69
2023-04-22T20:17:11.184Z,100542.28
2023-04-22T20:19:41.281Z,100543.23
2023-04-22T20:22:10.060Z,100546.11
2023-04-22T20:24:40.998Z,100545.56
2023-04-22T20:27:10.303Z,100547.52
2023-04-22T20:29:39.025Z,100544.30
2023-04-22T20:32:09.664Z,100554.68
2023-04-22T20:34:39.020Z,100553.50
2023-04-22T20:37:10.586Z,100554.89
2023-04-22T20:39:39.570Z,100549.59
2023-04-22T20:42:08.356Z,100547.30
2023-04-22T20:44:38.284Z,100547.85
2023-04-22T20:47:08.078Z,100547.45
2023-04-22T20:49:40.614Z,100553.32
2023-04-22T20:52:12.274Z,100551.91
2023-04-22T20:54:41.352Z,100553.23
2023-04-22T20:57:10.321Z,100554.72
2023-04-22T20:59:38.768Z,100555.73
2023-04-22T21:02:07.246Z,100554.63
2023-04-22T21:04:36.624Z,100555.16
2023-04-22T21:07:08.120Z,100556.95
2023-04-22T21:09:36.855Z,100562.14
2023-04-22T21:12:06.012Z,100566.17
2023-04-22T21:14:34.832Z,100563.66
2023-04-22T21:17:06.287Z,100567.69
2023-04-22T21:19:35.107Z,100565.42
2023-04-22T21:22:05.656Z,100564.16
2023-04-22T21:24:38.969Z,100566.58
2023-04-22T21:27:08.772Z,100567.80
2023-04-22T21:29:38.515Z,100563.19
2023-04-22T21:32:09.771Z,100563.09
2023-04-22T21:34:39.490Z,100568.94
2023-04-22T21:37:09.490Z,100567.95
2023-04-22T21:39:38.032Z,100569.58
2023-04-22T21:42:08.901Z,100574.48
2023-04-22T21:44:38.287Z,100569.73
2023-04-22T21:47:06.946Z,100569.73
2023-04-22T21:49:35.992Z,100571.92
2023-04-22T21:52:05.494Z,100572.19
2023-04-22T21:54:35.048Z,100571.73
2023-04-22T21:57:03.912Z,100572.98
2023-04-22T21:59:33.091Z,100574.42
2023-04-22T22:02:01.938Z,100571.44
2023-04-22T22:04:30.892Z,100574.55
2023-04-22T22:06:59.445Z,100581.33
2023-04-22T22:09:27.877Z,100583.05
2023-04-22T22:11:56.244Z,100585.45
2023-04-22T22:14:24.867Z,100583.05
2023-04-22T22:16:54.018Z,100583.19
2023-04-22T22:19:22.592Z,100584.98
2023-04-22T22:21:51.572Z,100587.02
2023-04-22T22:24:20.013Z,100582.48
2023-04-22T22:26:49.253Z,100582.30
2023-04-22T22:29:17.811Z,100584.24
2023-04-22T22:31:47.389Z,100581.91
2023-04-22T22:34:16.044Z,100585.21
2023-04-22T22:36:44.251Z,100584.01
2023-04-22T22:39:14.563Z,100583.56
2023-04-22T22:41:44.060Z,100583.91
2023-04-22T22:44:13.183Z,100585.75
2023-04-22T22:46:41.648Z,100586.30
2023-04-22T22:49:11.052Z,100587.09
2023-04-22T22:51:39.466Z,100587.27
2023-04-22T22:54:08.385Z,100592.36
2023-04-22T22:56:37.215Z,100590.81
2023-04-22T22:59:05.959Z,100592.61
2023-04-22T23:01:34.785Z,100593.71
2023-04-22T23:04:04.482Z,100592.79
2023-04-22T23:06:33.270Z,100594.66
2023-04-22T23:09:02.147Z,100594.30
2023-04-22T23:11:30.957Z,100593.77
2023-04-22T23:13:59.436Z,100591.83
2023-04-22T23:16:27.966Z,100592.85
2023-04-22T23:18:56.665Z,100593.09
2023-04-22T23:21:25.312Z,100594.60
2023-04-22T23:23:54.304Z,100594.54
2023-04-22T23:26:22.992Z,100595.46
2023-04-22T23:28:52.284Z,100599.77
2023-04-22T23:31:21.044Z,100600.40
2023-04-22T23:33:50.226Z,100599.69
2023-04-22T23:36:22.470Z,100597.33
2023-04-22T23:38:50.983Z,100600.77
2023-04-22T23:41:20.091Z,100602.66
2023-04-22T23:43:48.666Z,100602.36
2023-04-22T23:46:18.661Z,100605.04
2023-04-22T23:48:47.583Z,100606.77
2023-04-22T23:51:17.248Z,100609.10
2023-04-22T23:53:46.910Z,100610.52
2023-04-22T23:56:20.344Z,100609.90
2023-04-22T23:58:49.909Z,100615.52
